createdAt,value
2023-03-10T00:00:47.010Z,955.00
2023-03-10T00:01:47.004Z,955.00
2023-03-10T00:02:47.121Z,955.05
2023-03-10T00:03:47.180Z,955.15
2023-03-10T00:04:47.009Z,955.12
2023-03-10T00:05:47.038Z,955.09
2023-03-10T00:06:46.940Z,955.14
2023-03-10T00:07:46.960Z,955.10
2023-03-10T00:08:46.913Z,955.12
2023-03-10T00:09:46.910Z,955.11
2023-03-10T00:10:47.091Z,955.09
2023-03-10T00:11:47.080Z,955.06
2023-03-10T00:13:46.850Z,955.07
2023-03-10T00:14:46.842Z,955.02
2023-03-10T00:15:46.863Z,955.06
2023-03-10T00:16:46.816Z,955.00
2023-03-10T00:18:46.807Z,955.00
2023-03-10T00:19:46.783Z,954.95
2023-03-10T00:20:46.767Z,954.95
2023-03-10T00:21:46.750Z,954.92
2023-03-10T00:22:46.741Z,954.92
2023-03-10T00:23:46.728Z,954.91
2023-03-10T00:25:46.704Z,954.98
2023-03-10T00:26:46.687Z,954.90
2023-03-10T00:27:46.679Z,954.89
2023-03-10T00:28:46.666Z,954.86
2023-03-10T00:29:46.657Z,954.87
2023-03-10T00:30:46.844Z,954.88
2023-03-10T00:31:46.642Z,954.83
2023-03-10T00:32:46.935Z,954.84
2023-03-10T00:33:46.607Z,954.87
2023-03-10T00:34:46.611Z,954.89
2023-03-10T00:35:46.591Z,954.91
2023-03-10T00:36:46.569Z,954.88
2023-03-10T00:37:46.560Z,954.86
2023-03-10T00:38:46.571Z,954.95
2023-03-10T00:39:46.534Z,954.94
2023-03-10T00:40:46.520Z,954.96
2023-03-10T00:41:46.709Z,955.00
2023-03-10T00:42:46.493Z,954.98
2023-03-10T00:43:46.487Z,954.96
2023-03-10T00:44:46.473Z,955.02
2023-03-10T00:45:46.458Z,954.90
2023-03-10T00:46:46.538Z,954.86
2023-03-10T00:47:46.437Z,954.88
2023-03-10T00:48:46.420Z,954.93
2023-03-10T00:49:46.419Z,954.86
2023-03-10T00:50:46.442Z,954.80
2023-03-10T00:51:46.389Z,954.79
2023-03-10T00:52:46.370Z,954.90
2023-03-10T00:53:46.361Z,954.98
2023-03-10T00:54:46.349Z,955.03
2023-03-10T00:55:46.337Z,955.03
2023-03-10T00:56:46.317Z,955.00
2023-03-10T00:57:46.309Z,955.01
2023-03-10T00:58:46.496Z,955.01
2023-03-10T00:59:50.355Z,955.03
2023-03-10T01:00:46.273Z,955.01
2023-03-10T01:01:46.324Z,955.02
2023-03-10T01:02:46.243Z,955.02
2023-03-10T01:03:46.237Z,955.05
2023-03-10T01:04:46.330Z,954.99
2023-03-10T01:05:46.266Z,955.02
2023-03-10T01:06:46.211Z,955.04
2023-03-10T01:07:46.186Z,955.07
2023-03-10T01:08:46.169Z,955.08
2023-03-10T01:09:46.161Z,955.04
2023-03-10T01:10:46.143Z,955.07
2023-03-10T01:11:46.135Z,955.03
2023-03-10T01:12:46.116Z,955.02
2023-03-10T01:13:46.110Z,955.03
2023-03-10T01:14:46.091Z,955.02
2023-03-10T01:15:46.122Z,954.98
2023-03-10T01:16:46.068Z,955.03
2023-03-10T01:17:46.066Z,955.02
2023-03-10T01:18:46.043Z,955.01
2023-03-10T01:19:46.038Z,954.99
2023-03-10T01:20:46.024Z,954.99
2023-03-10T01:21:46.008Z,955.00
2023-03-10T01:22:46.020Z,955.01
2023-03-10T01:23:45.985Z,954.96
2023-03-10T01:24:45.973Z,954.99
2023-03-10T01:25:45.961Z,954.91
2023-03-10T01:26:45.944Z,954.99
2023-03-10T01:27:45.933Z,955.01
2023-03-10T01:28:45.920Z,955.04
2023-03-10T01:29:45.917Z,954.95
2023-03-10T01:30:45.895Z,955.07
2023-03-10T01:32:45.909Z,955.08
2023-03-10T01:33:45.882Z,955.02
2023-03-10T01:34:45.844Z,955.07
2023-03-10T01:35:45.895Z,955.16
2023-03-10T01:36:45.816Z,955.00
2023-03-10T01:37:46.005Z,955.04
2023-03-10T01:38:45.807Z,955.23
2023-03-10T01:39:45.775Z,955.38
2023-03-10T01:40:45.764Z,955.46
2023-03-10T01:41:45.748Z,955.28
2023-03-10T01:42:45.744Z,955.28
2023-03-10T01:43:45.738Z,955.46
2023-03-10T01:44:45.710Z,955.42
2023-03-10T01:45:45.697Z,955.39
2023-03-10T01:46:45.806Z,955.37
2023-03-10T01:47:45.675Z,955.37
2023-03-10T01:48:45.663Z,955.30
2023-03-10T01:49:45.670Z,955.30
2023-03-10T01:50:45.654Z,955.28
2023-03-10T01:51:45.618Z,955.25
2023-03-10T01:52:45.608Z,955.32
2023-03-10T01:53:45.590Z,955.12
2023-03-10T01:54:45.663Z,955.25
2023-03-10T01:55:45.566Z,955.36
2023-03-10T01:56:45.556Z,955.29
2023-03-10T01:57:45.541Z,955.24
2023-03-10T01:58:45.529Z,955.23
2023-03-10T01:59:45.515Z,955.32
2023-03-10T02:00:45.540Z,955.16
2023-03-10T02:01:45.536Z,955.16
2023-03-10T02:02:45.475Z,955.27
2023-03-10T02:03:45.673Z,955.26
2023-03-10T02:04:45.452Z,955.25
2023-03-10T02:05:45.467Z,955.23
2023-03-10T02:06:45.626Z,955.25
2023-03-10T02:07:45.415Z,955.15
2023-03-10T02:08:45.400Z,955.15
2023-03-10T02:09:45.381Z,955.19
2023-03-10T02:10:45.399Z,955.10
2023-03-10T02:11:45.359Z,955.15
2023-03-10T02:12:45.360Z,955.15
2023-03-10T02:13:45.337Z,955.17
2023-03-10T02:14:45.326Z,955.13
2023-03-10T02:15:45.324Z,955.13
2023-03-10T02:16:45.365Z,955.14
2023-03-10T02:17:45.320Z,955.07
2023-03-10T02:18:45.294Z,955.06
2023-03-10T02:19:45.260Z,955.10
2023-03-10T02:20:45.259Z,955.03
2023-03-10T02:21:45.233Z,955.02
2023-03-10T02:22:45.230Z,955.04
2023-03-10T02:23:58.720Z,955.01
2023-03-10T02:24:45.197Z,955.00
2023-03-10T02:25:45.183Z,954.99
2023-03-10T02:26:45.191Z,955.05
2023-03-10T02:27:45.157Z,955.02
2023-03-10T02:28:45.146Z,955.04
2023-03-10T02:29:58.002Z,955.00
2023-03-10T02:30:45.121Z,955.02
2023-03-10T02:31:45.216Z,955.00
2023-03-10T02:32:45.188Z,955.00
2023-03-10T02:33:45.081Z,954.99
2023-03-10T02:34:45.071Z,955.00
2023-03-10T02:35:45.092Z,955.03
2023-03-10T02:36:45.044Z,955.04
2023-03-10T02:37:45.029Z,955.02
2023-03-10T02:38:45.023Z,955.01
2023-03-10T02:39:45.001Z,954.98
2023-03-10T02:40:44.996Z,954.98
2023-03-10T02:41:45.582Z,954.94
2023-03-10T02:42:44.992Z,954.99
2023-03-10T02:43:44.952Z,954.92
2023-03-10T02:44:44.952Z,954.95
2023-03-10T02:45:44.956Z,954.95
2023-03-10T02:46:44.917Z,954.93
2023-03-10T02:47:44.906Z,954.91
2023-03-10T02:48:44.893Z,954.91
2023-03-10T02:49:44.873Z,954.95
2023-03-10T02:50:44.863Z,954.93
2023-03-10T02:51:44.863Z,954.94
2023-03-10T02:52:44.841Z,954.90
2023-03-10T02:53:44.820Z,954.92
2023-03-10T02:54:44.811Z,954.93
2023-03-10T02:55:44.794Z,954.93
2023-03-10T02:56:44.787Z,954.89
2023-03-10T02:57:44.769Z,954.89
2023-03-10T02:58:44.778Z,954.83
2023-03-10T02:59:44.743Z,954.87
2023-03-10T03:00:44.763Z,954.87
2023-03-10T03:01:44.922Z,954.88
2023-03-10T03:02:44.707Z,954.82
2023-03-10T03:03:44.753Z,954.83
2023-03-10T03:04:44.684Z,954.83
2023-03-10T03:05:44.668Z,954.84
2023-03-10T03:06:44.858Z,954.85
2023-03-10T03:07:44.641Z,954.76
2023-03-10T03:08:44.633Z,954.76
2023-03-10T03:09:44.616Z,954.77
2023-03-10T03:10:44.605Z,954.83
2023-03-10T03:11:44.590Z,954.83
2023-03-10T03:12:44.583Z,954.78
2023-03-10T03:13:44.568Z,954.73
2023-03-10T03:14:44.639Z,954.80
2023-03-10T03:15:44.537Z,954.75
2023-03-10T03:16:44.617Z,954.77
2023-03-10T03:17:44.546Z,954.84
2023-03-10T03:18:44.498Z,954.72
2023-03-10T03:19:44.489Z,954.75
2023-03-10T03:20:44.504Z,954.69
2023-03-10T03:21:44.464Z,954.66
2023-03-10T03:22:44.450Z,954.71
2023-03-10T03:23:44.433Z,954.62
2023-03-10T03:24:44.425Z,954.70
2023-03-10T03:25:44.407Z,954.70
2023-03-10T03:26:44.398Z,954.56
2023-03-10T03:27:44.380Z,954.61
2023-03-10T03:28:44.371Z,954.63
2023-03-10T03:29:44.354Z,954.63
2023-03-10T03:30:44.434Z,954.55
2023-03-10T03:31:44.409Z,954.51
2023-03-10T03:32:44.373Z,954.53
2023-03-10T03:33:44.304Z,954.44
2023-03-10T03:34:44.295Z,954.37
2023-03-10T03:35:44.303Z,954.27
2023-03-10T03:36:44.276Z,954.32
2023-03-10T03:37:44.454Z,954.35
2023-03-10T03:38:44.243Z,954.35
2023-03-10T03:39:44.364Z,954.29
2023-03-10T03:40:44.215Z,954.31
2023-03-10T03:41:44.202Z,954.37
2023-03-10T03:42:44.191Z,954.34
2023-03-10T03:43:44.177Z,954.22
2023-03-10T03:44:44.168Z,954.23
2023-03-10T03:45:44.183Z,954.30
2023-03-10T03:46:44.166Z,954.24
2023-03-10T03:47:44.123Z,954.26
2023-03-10T03:48:44.111Z,954.18
2023-03-10T03:49:44.100Z,954.23
2023-03-10T03:50:44.088Z,954.29
2023-03-10T03:51:44.076Z,954.24
2023-03-10T03:52:44.065Z,954.19
2023-03-10T03:53:44.044Z,954.15
2023-03-10T03:54:44.032Z,954.00
2023-03-10T03:55:44.018Z,953.93
2023-03-10T03:56:44.006Z,954.00
2023-03-10T03:57:43.992Z,953.95
2023-03-10T03:58:43.982Z,953.99
2023-03-10T03:59:43.966Z,953.99
2023-03-10T04:00:43.955Z,953.98
2023-03-10T04:01:43.939Z,954.01
2023-03-10T04:02:44.014Z,953.92
2023-03-10T04:03:43.971Z,953.84
2023-03-10T04:04:43.904Z,953.85
2023-03-10T04:05:43.889Z,953.83
2023-03-10T04:06:43.877Z,953.82
2023-03-10T04:07:43.862Z,953.83
2023-03-10T04:08:43.850Z,953.75
2023-03-10T04:09:43.838Z,953.76
2023-03-10T04:10:43.828Z,953.76
2023-03-10T04:11:43.807Z,953.71
2023-03-10T04:12:43.800Z,953.75
2023-03-10T04:13:43.783Z,953.72
2023-03-10T04:14:43.777Z,953.75
2023-03-10T04:15:43.817Z,953.73
2023-03-10T04:16:43.746Z,953.68
2023-03-10T04:17:43.732Z,953.70
2023-03-10T04:18:43.738Z,953.66
2023-03-10T04:19:45.873Z,953.66
2023-03-10T04:20:43.694Z,953.66
2023-03-10T04:21:43.682Z,953.66
2023-03-10T04:22:43.670Z,953.64
2023-03-10T04:23:43.654Z,953.60
2023-03-10T04:24:43.644Z,953.56
2023-03-10T04:25:43.624Z,953.52
2023-03-10T04:26:43.616Z,953.44
2023-03-10T04:27:43.604Z,953.40
2023-03-10T04:28:43.589Z,953.40
2023-03-10T04:29:43.584Z,953.36
2023-03-10T04:30:43.568Z,953.29
2023-03-10T04:31:48.312Z,953.24
2023-03-10T04:32:43.664Z,953.18
2023-03-10T04:33:43.523Z,953.21
2023-03-10T04:34:43.529Z,953.23
2023-03-10T04:35:43.529Z,953.28
2023-03-10T04:36:43.487Z,953.31
2023-03-10T04:37:43.468Z,953.34
2023-03-10T04:38:43.461Z,953.33
2023-03-10T04:39:43.444Z,953.29
2023-03-10T04:40:43.434Z,953.18
2023-03-10T04:41:43.418Z,953.18
2023-03-10T04:42:43.406Z,953.09
2023-03-10T04:43:45.682Z,953.13
2023-03-10T04:44:43.378Z,953.07
2023-03-10T04:45:43.365Z,953.05
2023-03-10T04:46:43.496Z,953.02
2023-03-10T04:47:43.340Z,953.06
2023-03-10T04:48:43.332Z,953.08
2023-03-10T04:49:43.313Z,953.08
2023-03-10T04:50:43.435Z,953.09
2023-03-10T04:51:43.298Z,953.11
2023-03-10T04:52:43.275Z,953.19
2023-03-10T04:53:43.262Z,953.08
2023-03-10T04:54:43.248Z,953.02
2023-03-10T04:55:43.234Z,952.99
2023-03-10T04:56:43.216Z,953.06
2023-03-10T04:57:43.211Z,953.00
2023-03-10T04:58:43.195Z,952.96
2023-03-10T04:59:43.188Z,952.93
2023-03-10T05:00:56.501Z,952.85
2023-03-10T05:01:43.243Z,952.88
2023-03-10T05:02:43.152Z,952.86
2023-03-10T05:03:43.212Z,952.76
2023-03-10T05:05:43.166Z,952.64
2023-03-10T05:06:43.117Z,952.64
2023-03-10T05:07:43.091Z,952.63
2023-03-10T05:08:43.058Z,952.63
2023-03-10T05:09:43.043Z,952.63
2023-03-10T05:10:43.033Z,952.62
2023-03-10T05:11:43.027Z,952.62
2023-03-10T05:12:43.005Z,952.58
2023-03-10T05:13:42.995Z,952.51
2023-03-10T05:14:42.977Z,952.53
2023-03-10T05:15:43.070Z,952.50
2023-03-10T05:16:42.969Z,952.47
2023-03-10T05:17:42.962Z,952.43
2023-03-10T05:18:42.932Z,952.43
2023-03-10T05:19:42.908Z,952.46
2023-03-10T05:20:42.897Z,952.38
2023-03-10T05:21:42.880Z,952.32
2023-03-10T05:22:42.891Z,952.35
2023-03-10T05:23:42.855Z,952.36
2023-03-10T05:24:42.850Z,952.39
2023-03-10T05:25:42.832Z,952.34
2023-03-10T05:26:42.819Z,952.29
2023-03-10T05:27:42.807Z,952.33
2023-03-10T05:28:42.791Z,952.28
2023-03-10T05:29:42.776Z,952.37
2023-03-10T05:30:42.767Z,952.36
2023-03-10T05:31:42.859Z,952.37
2023-03-10T05:32:42.819Z,952.32
2023-03-10T05:33:42.721Z,952.37
2023-03-10T05:34:42.923Z,952.29
2023-03-10T05:35:42.781Z,952.26
2023-03-10T05:36:42.685Z,952.23
2023-03-10T05:37:42.673Z,952.18
2023-03-10T05:38:42.679Z,952.17
2023-03-10T05:39:42.642Z,952.25
2023-03-10T05:40:42.633Z,952.29
2023-03-10T05:41:42.617Z,952.30
2023-03-10T05:42:42.608Z,952.33
2023-03-10T05:43:42.593Z,952.35
2023-03-10T05:44:42.580Z,952.39
2023-03-10T05:45:42.565Z,952.34
2023-03-10T05:46:42.647Z,952.28
2023-03-10T05:47:42.542Z,952.27
2023-03-10T05:48:42.528Z,952.22
2023-03-10T05:49:42.514Z,952.27
2023-03-10T05:50:42.506Z,952.19
2023-03-10T05:51:42.485Z,952.24
2023-03-10T05:52:42.472Z,952.27
2023-03-10T05:53:42.466Z,952.31
2023-03-10T05:54:42.503Z,952.45
2023-03-10T05:55:42.467Z,952.56
2023-03-10T05:56:42.420Z,952.70
2023-03-10T05:57:42.413Z,952.78
2023-03-10T05:58:42.444Z,952.69
2023-03-10T05:59:42.376Z,952.62
2023-03-10T06:00:42.372Z,952.57
2023-03-10T06:01:42.356Z,952.54
2023-03-10T06:02:42.415Z,952.46
2023-03-10T06:03:42.475Z,952.38
2023-03-10T06:04:42.314Z,952.33
2023-03-10T06:05:42.298Z,952.37
2023-03-10T06:06:42.294Z,952.35
2023-03-10T06:07:42.272Z,952.42
2023-03-10T06:08:42.264Z,952.45
2023-03-10T06:09:42.448Z,952.47
2023-03-10T06:10:42.258Z,952.53
2023-03-10T06:11:42.219Z,952.55
2023-03-10T06:12:42.212Z,952.58
2023-03-10T06:13:42.209Z,952.56
2023-03-10T06:14:42.193Z,952.63
2023-03-10T06:15:42.165Z,952.65
2023-03-10T06:16:42.218Z,952.67
2023-03-10T06:17:42.141Z,952.70
2023-03-10T06:18:42.134Z,952.61
2023-03-10T06:19:42.121Z,952.56
2023-03-10T06:20:42.113Z,952.53
2023-03-10T06:21:42.088Z,952.50
2023-03-10T06:22:42.077Z,952.56
2023-03-10T06:23:42.087Z,952.60
2023-03-10T06:24:42.051Z,952.64
2023-03-10T06:25:42.045Z,952.73
2023-03-10T06:26:42.056Z,952.78
2023-03-10T06:27:42.012Z,952.86
2023-03-10T06:29:41.985Z,952.94
2023-03-10T06:30:41.977Z,952.87
2023-03-10T06:31:42.034Z,952.94
2023-03-10T06:32:42.028Z,953.04
2023-03-10T06:33:41.933Z,953.06
2023-03-10T06:34:41.924Z,953.08
2023-03-10T06:35:41.908Z,953.07
2023-03-10T06:36:41.901Z,953.04
2023-03-10T06:37:41.888Z,952.98
2023-03-10T06:38:41.865Z,952.94
2023-03-10T06:39:41.855Z,952.91
2023-03-10T06:40:41.839Z,952.93
2023-03-10T06:41:41.841Z,952.98
2023-03-10T06:42:41.899Z,953.00
2023-03-10T06:43:41.804Z,953.18
2023-03-10T06:44:41.786Z,953.27
2023-03-10T06:45:41.821Z,953.33
2023-03-10T06:46:41.762Z,953.37
2023-03-10T06:47:41.752Z,953.46
2023-03-10T06:48:41.733Z,953.42
2023-03-10T06:49:41.724Z,953.47
2023-03-10T06:50:41.707Z,953.41
2023-03-10T06:51:41.697Z,953.46
2023-03-10T06:52:41.681Z,953.47
2023-03-10T06:53:41.673Z,953.51
2023-03-10T06:54:41.655Z,953.43
2023-03-10T06:55:41.643Z,953.41
2023-03-10T06:56:41.625Z,953.42
2023-03-10T06:57:41.621Z,953.39
2023-03-10T06:58:41.617Z,953.37
2023-03-10T06:59:41.595Z,953.29
2023-03-10T07:00:41.578Z,953.30
2023-03-10T07:01:41.562Z,953.20
2023-03-10T07:02:41.555Z,953.16
2023-03-10T07:03:43.729Z,953.14
2023-03-10T07:04:41.584Z,953.11
2023-03-10T07:05:41.511Z,953.11
2023-03-10T07:06:41.498Z,953.07
2023-03-10T07:07:41.483Z,953.14
2023-03-10T07:08:41.461Z,953.11
2023-03-10T07:09:41.458Z,953.12
2023-03-10T07:10:41.454Z,953.20
2023-03-10T07:11:41.423Z,953.20
2023-03-10T07:12:41.404Z,953.28
2023-03-10T07:13:41.395Z,953.32
2023-03-10T07:14:41.396Z,953.37
2023-03-10T07:15:41.370Z,953.34
2023-03-10T07:16:41.476Z,953.34
2023-03-10T07:17:41.340Z,953.36
2023-03-10T07:18:41.326Z,953.39
2023-03-10T07:19:41.316Z,953.40
2023-03-10T07:20:41.304Z,953.42
2023-03-10T07:21:41.286Z,953.45
2023-03-10T07:22:41.272Z,953.50
2023-03-10T07:23:41.263Z,953.49
2023-03-10T07:25:41.237Z,953.60
2023-03-10T07:27:41.203Z,953.59
2023-03-10T07:28:41.192Z,953.60
2023-03-10T07:29:41.178Z,953.62
2023-03-10T07:30:41.496Z,953.68
2023-03-10T07:31:41.149Z,953.67
2023-03-10T07:32:41.317Z,953.66
2023-03-10T07:33:41.122Z,953.64
2023-03-10T07:34:41.105Z,953.62
2023-03-10T07:35:41.111Z,953.67
2023-03-10T07:36:41.077Z,953.67
2023-03-10T07:37:41.072Z,953.71
2023-03-10T07:38:41.065Z,953.72
2023-03-10T07:39:41.044Z,953.78
2023-03-10T07:40:41.036Z,953.84
2023-03-10T07:41:41.021Z,953.90
2023-03-10T07:43:40.985Z,954.04
2023-03-10T07:44:40.971Z,954.01
2023-03-10T07:46:41.024Z,954.05
2023-03-10T07:47:40.958Z,954.09
2023-03-10T07:48:40.914Z,954.19
2023-03-10T07:49:40.903Z,954.16
2023-03-10T07:50:40.887Z,954.12
2023-03-10T07:51:40.877Z,953.99
2023-03-10T07:52:40.867Z,953.96
2023-03-10T07:53:40.857Z,953.97
2023-03-10T07:54:40.835Z,953.97
2023-03-10T07:55:40.822Z,954.02
2023-03-10T07:56:40.806Z,954.10
2023-03-10T07:57:40.795Z,954.14
2023-03-10T07:58:40.888Z,954.15
2023-03-10T07:59:40.770Z,954.20
2023-03-10T08:00:40.749Z,954.18
2023-03-10T08:01:41.316Z,954.17
2023-03-10T08:02:40.985Z,954.16
2023-03-10T08:03:40.996Z,954.16
2023-03-10T08:04:40.962Z,954.24
2023-03-10T08:05:40.718Z,954.21
2023-03-10T08:06:41.513Z,954.20
2023-03-10T08:07:40.660Z,954.24
2023-03-10T08:08:40.803Z,954.25
2023-03-10T08:09:40.631Z,954.24
2023-03-10T08:10:40.616Z,954.19
2023-03-10T08:11:40.602Z,954.15
2023-03-10T08:12:40.588Z,954.20
2023-03-10T08:13:40.654Z,954.18
2023-03-10T08:14:40.561Z,954.12
2023-03-10T08:15:40.635Z,954.23
2023-03-10T08:16:40.546Z,954.30
2023-03-10T08:17:40.601Z,954.30
2023-03-10T08:18:40.563Z,954.35
2023-03-10T08:19:40.506Z,954.35
2023-03-10T08:20:40.747Z,954.33
2023-03-10T08:21:40.472Z,954.35
2023-03-10T08:22:40.456Z,954.37
2023-03-10T08:23:40.488Z,954.42
2023-03-10T08:24:40.453Z,954.42
2023-03-10T08:25:40.466Z,954.39
2023-03-10T08:26:40.401Z,954.43
2023-03-10T08:27:40.390Z,954.31
2023-03-10T08:28:40.979Z,954.39
2023-03-10T08:29:40.358Z,954.31
2023-03-10T08:30:53.236Z,954.30
2023-03-10T08:31:40.386Z,954.35
2023-03-10T08:32:40.361Z,954.33
2023-03-10T08:33:40.308Z,954.39
2023-03-10T08:34:40.307Z,954.44
2023-03-10T08:35:40.410Z,954.42
2023-03-10T08:36:40.286Z,954.48
2023-03-10T08:37:42.554Z,954.42
2023-03-10T08:38:40.254Z,954.47
2023-03-10T08:39:40.370Z,954.45
2023-03-10T08:40:40.214Z,954.49
2023-03-10T08:41:40.203Z,954.43
2023-03-10T08:42:40.189Z,954.44
2023-03-10T08:43:40.180Z,954.43
2023-03-10T08:44:40.165Z,954.47
2023-03-10T08:45:40.150Z,954.44
2023-03-10T08:46:40.189Z,954.44
2023-03-10T08:47:40.132Z,954.42
2023-03-10T08:48:42.658Z,954.36
2023-03-10T08:49:42.473Z,954.47
2023-03-10T08:50:40.111Z,954.43
2023-03-10T08:51:40.075Z,954.38
2023-03-10T08:52:40.060Z,954.32
2023-03-10T08:53:40.057Z,954.32
2023-03-10T08:54:40.036Z,954.27
2023-03-10T08:55:40.227Z,954.31
2023-03-10T08:56:40.016Z,954.34
2023-03-10T08:57:40.010Z,954.34
2023-03-10T08:58:39.985Z,954.46
2023-03-10T08:59:39.979Z,954.38
2023-03-10T09:00:39.964Z,954.41
2023-03-10T09:01:39.973Z,954.36
2023-03-10T09:02:39.983Z,954.33
2023-03-10T09:03:40.056Z,954.40
2023-03-10T09:04:39.921Z,954.33
2023-03-10T09:05:39.896Z,954.31
2023-03-10T09:06:39.905Z,954.35
2023-03-10T09:07:39.941Z,954.37
2023-03-10T09:08:39.858Z,954.34
2023-03-10T09:09:39.852Z,954.29
2023-03-10T09:10:39.835Z,954.29
2023-03-10T09:12:39.810Z,954.25
2023-03-10T09:13:39.798Z,954.31
2023-03-10T09:14:39.784Z,954.31
2023-03-10T09:15:39.775Z,954.33
2023-03-10T09:16:39.857Z,954.28
2023-03-10T09:17:40.867Z,954.33
2023-03-10T09:18:39.733Z,954.33
2023-03-10T09:19:39.722Z,954.36
2023-03-10T09:20:39.706Z,954.36
2023-03-10T09:21:39.696Z,954.28
2023-03-10T09:22:39.703Z,954.37
2023-03-10T09:23:39.670Z,954.35
2023-03-10T09:24:39.663Z,954.35
2023-03-10T09:25:39.644Z,954.33
2023-03-10T09:26:39.629Z,954.33
2023-03-10T09:27:39.619Z,954.32
2023-03-10T09:28:39.608Z,954.29
2023-03-10T09:29:43.428Z,954.36
2023-03-10T09:30:39.579Z,954.35
2023-03-10T09:31:39.739Z,954.35
2023-03-10T09:32:39.619Z,954.33
2023-03-10T09:33:39.545Z,954.34
2023-03-10T09:34:39.529Z,954.36
2023-03-10T09:35:41.793Z,954.28
2023-03-10T09:36:39.505Z,954.29
2023-03-10T09:37:39.496Z,954.24
2023-03-10T09:38:39.705Z,954.33
2023-03-10T09:39:39.495Z,954.25
2023-03-10T09:40:39.454Z,954.26
2023-03-10T09:41:39.446Z,954.33
2023-03-10T09:42:39.477Z,954.34
2023-03-10T09:43:39.482Z,954.30
2023-03-10T09:44:39.411Z,954.32
2023-03-10T09:45:39.520Z,954.30
2023-03-10T09:46:39.580Z,954.24
2023-03-10T09:47:39.369Z,954.19
2023-03-10T09:48:39.371Z,954.26
2023-03-10T09:49:39.355Z,954.18
2023-03-10T09:50:39.339Z,954.15
2023-03-10T09:51:39.318Z,954.16
2023-03-10T09:52:39.309Z,954.14
2023-03-10T09:53:39.306Z,954.18
2023-03-10T09:54:41.707Z,954.21
2023-03-10T09:55:47.071Z,954.19
2023-03-10T09:56:39.267Z,954.20
2023-03-10T09:57:39.244Z,954.24
2023-03-10T09:58:39.270Z,954.17
2023-03-10T09:59:39.223Z,954.21
2023-03-10T10:00:39.209Z,954.17
2023-03-10T10:01:39.192Z,954.24
2023-03-10T10:02:39.177Z,954.26
2023-03-10T10:03:52.084Z,954.34
2023-03-10T10:04:39.198Z,954.26
2023-03-10T10:05:39.141Z,954.30
2023-03-10T10:06:39.171Z,954.27
2023-03-10T10:07:39.118Z,954.31
2023-03-10T10:08:39.100Z,954.39
2023-03-10T10:09:39.087Z,954.37
2023-03-10T10:10:39.102Z,954.32
2023-03-10T10:11:39.064Z,954.25
2023-03-10T10:12:39.047Z,954.26
2023-03-10T10:13:41.764Z,954.25
2023-03-10T10:14:42.581Z,954.19
2023-03-10T10:15:39.014Z,954.21
2023-03-10T10:16:39.042Z,954.17
2023-03-10T10:17:47.337Z,954.23
2023-03-10T10:18:39.009Z,954.35
2023-03-10T10:19:38.960Z,954.36
2023-03-10T10:20:38.945Z,954.29
2023-03-10T10:21:42.653Z,954.30
2023-03-10T10:22:38.923Z,954.22
2023-03-10T10:23:38.920Z,954.16
2023-03-10T10:24:38.895Z,954.18
2023-03-10T10:25:40.209Z,954.22
2023-03-10T10:26:38.896Z,954.23
2023-03-10T10:27:38.865Z,954.27
2023-03-10T10:28:38.851Z,954.26
2023-03-10T10:29:38.851Z,954.26
2023-03-10T10:30:39.098Z,954.29
2023-03-10T10:31:38.811Z,954.34
2023-03-10T10:32:38.820Z,954.37
2023-03-10T10:33:38.790Z,954.45
2023-03-10T10:34:38.774Z,954.31
2023-03-10T10:35:38.774Z,954.41
2023-03-10T10:36:38.745Z,954.41
2023-03-10T10:37:41.381Z,954.37
2023-03-10T10:38:38.723Z,954.38
2023-03-10T10:39:38.712Z,954.32
2023-03-10T10:40:38.705Z,954.42
2023-03-10T10:41:38.696Z,954.43
2023-03-10T10:42:38.701Z,954.46
2023-03-10T10:43:38.665Z,954.54
2023-03-10T10:44:38.649Z,954.39
2023-03-10T10:45:38.643Z,954.46
2023-03-10T10:46:38.627Z,954.59
2023-03-10T10:47:38.618Z,954.50
2023-03-10T10:48:38.603Z,954.54
2023-03-10T10:49:38.596Z,954.66
2023-03-10T10:50:38.591Z,954.55
2023-03-10T10:51:38.573Z,954.56
2023-03-10T10:52:38.561Z,954.62
2023-03-10T10:53:38.546Z,954.69
2023-03-10T10:54:38.534Z,954.70
2023-03-10T10:55:38.519Z,954.71
2023-03-10T10:56:38.506Z,954.64
2023-03-10T10:57:38.501Z,954.70
2023-03-10T10:58:38.518Z,954.82
2023-03-10T10:59:38.476Z,954.74
2023-03-10T11:00:38.552Z,954.73
2023-03-10T11:01:38.552Z,954.79
2023-03-10T11:02:38.500Z,954.78
2023-03-10T11:03:38.427Z,954.78
2023-03-10T11:04:38.407Z,954.89
2023-03-10T11:05:38.397Z,954.85
2023-03-10T11:06:38.378Z,954.84
2023-03-10T11:07:38.371Z,954.82
2023-03-10T11:08:38.356Z,954.77
2023-03-10T11:09:38.348Z,955.00
2023-03-10T11:10:38.349Z,954.84
2023-03-10T11:11:38.322Z,954.90
2023-03-10T11:12:38.305Z,954.87
2023-03-10T11:13:38.297Z,954.93
2023-03-10T11:14:38.307Z,954.88
2023-03-10T11:15:38.345Z,954.94
2023-03-10T11:16:38.254Z,954.89
2023-03-10T11:17:38.264Z,954.96
2023-03-10T11:18:38.240Z,954.95
2023-03-10T11:19:38.222Z,954.95
2023-03-10T11:20:38.206Z,954.98
2023-03-10T11:21:38.204Z,955.00
2023-03-10T11:22:38.186Z,955.01
2023-03-10T11:23:38.172Z,954.88
2023-03-10T11:24:38.163Z,954.91
2023-03-10T11:25:38.149Z,954.99
2023-03-10T11:26:38.131Z,955.01
2023-03-10T11:27:38.125Z,955.02
2023-03-10T11:28:38.113Z,955.08
2023-03-10T11:29:38.199Z,954.99
2023-03-10T11:30:38.130Z,954.98
2023-03-10T11:31:38.073Z,955.00
2023-03-10T11:32:38.130Z,955.11
2023-03-10T11:33:38.046Z,955.16
2023-03-10T11:34:38.030Z,954.90
2023-03-10T11:35:38.094Z,955.07
2023-03-10T11:36:49.535Z,955.20
2023-03-10T11:37:37.994Z,955.16
2023-03-10T11:38:37.994Z,955.20
2023-03-10T11:39:37.972Z,955.16
2023-03-10T11:40:37.959Z,955.14
2023-03-10T11:41:37.946Z,955.19
2023-03-10T11:42:37.932Z,955.18
2023-03-10T11:43:37.922Z,955.11
2023-03-10T11:44:37.903Z,955.18
2023-03-10T11:45:37.892Z,955.08
2023-03-10T11:46:37.952Z,955.14
2023-03-10T11:47:40.741Z,955.11
2023-03-10T11:48:37.855Z,955.10
2023-03-10T11:49:37.844Z,955.12
2023-03-10T11:50:37.825Z,955.09
2023-03-10T11:51:37.817Z,955.13
2023-03-10T11:52:37.801Z,955.10
2023-03-10T11:53:37.788Z,955.20
2023-03-10T11:54:37.774Z,955.14
2023-03-10T11:55:37.766Z,955.20
2023-03-10T11:56:37.749Z,955.15
2023-03-10T11:57:37.740Z,955.16
2023-03-10T11:58:37.720Z,955.21
2023-03-10T11:59:37.711Z,955.25
2023-03-10T12:00:37.697Z,955.26
2023-03-10T12:01:37.686Z,955.26
2023-03-10T12:02:37.707Z,955.29
2023-03-10T12:03:37.748Z,955.34
2023-03-10T12:04:37.646Z,955.29
2023-03-10T12:05:37.786Z,955.34
2023-03-10T12:06:37.622Z,955.31
2023-03-10T12:07:37.610Z,955.33
2023-03-10T12:08:37.591Z,955.29
2023-03-10T12:09:37.581Z,955.27
2023-03-10T12:10:37.564Z,955.30
2023-03-10T12:11:37.556Z,955.26
2023-03-10T12:12:37.549Z,955.25
2023-03-10T12:13:37.531Z,955.27
2023-03-10T12:14:37.514Z,955.24
2023-03-10T12:15:37.504Z,955.22
2023-03-10T12:16:37.617Z,955.25
2023-03-10T12:17:37.477Z,955.31
2023-03-10T12:18:37.480Z,955.24
2023-03-10T12:19:37.450Z,955.14
2023-03-10T12:20:37.439Z,955.36
2023-03-10T12:21:37.423Z,955.22
2023-03-10T12:22:37.419Z,955.26
2023-03-10T12:23:37.398Z,955.29
2023-03-10T12:24:37.382Z,955.30
2023-03-10T12:25:37.372Z,955.37
2023-03-10T12:26:37.368Z,955.36
2023-03-10T12:27:37.346Z,955.25
2023-03-10T12:28:37.530Z,955.32
2023-03-10T12:30:37.305Z,955.36
2023-03-10T12:31:37.349Z,955.32
2023-03-10T12:32:37.377Z,955.34
2023-03-10T12:33:37.261Z,955.33
2023-03-10T12:34:37.276Z,955.31
2023-03-10T12:35:37.270Z,955.32
2023-03-10T12:36:37.225Z,955.27
2023-03-10T12:37:37.210Z,955.26
2023-03-10T12:38:37.198Z,955.23
2023-03-10T12:39:37.190Z,955.25
2023-03-10T12:40:37.175Z,955.29